Dryden, New York
Current Conditions -  °F | °C
As of 10:55 PM on Sunday 23 Nov 2014 (Local Time) from KN03 Reporting Station
Broken Clouds Broken Clouds  
Wind Chill: 46°   Ceiling: 4000
Heat Index: 46°   Visibility: 10mi
Dew Point: 34°   Wind: 0mph
Humidity: 62%   Direction: NA
Pressure: 29.88"   Gusts: NA
Location:  42.49°N, 76.3°W
Report Text: KN03 240355Z AUTO 00000KT 10SM SCT033 BKN040 08/01 A2988 RMK AO2
Loading
Personal Weather Stations






























Interactive Weather Map New forecast layout! Learn more

10-Day Weather Forecast

Advertisements
Track Severe Weather on mobile